createdAt,value
2023-10-20T00:00:48.161Z,976.9
2023-10-20T00:01:49.466Z,976.9
2023-10-20T00:02:50.707Z,976.9
2023-10-20T00:03:51.878Z,976.9
2023-10-20T00:04:53.054Z,976.9
2023-10-20T00:05:54.221Z,976.9
2023-10-20T00:06:55.383Z,976.9
2023-10-20T00:07:56.604Z,976.9
2023-10-20T00:08:57.751Z,976.8
2023-10-20T00:09:58.912Z,976.8
2023-10-20T00:11:00.105Z,976.8
2023-10-20T00:12:01.251Z,976.8
2023-10-20T00:13:02.412Z,976.8
2023-10-20T00:14:03.635Z,976.8
2023-10-20T00:15:04.800Z,976.8
2023-10-20T00:16:06.002Z,976.8
2023-10-20T00:17:07.525Z,976.9
2023-10-20T00:18:08.740Z,976.8
2023-10-20T00:19:10.009Z,976.8
2023-10-20T00:20:11.317Z,976.8
2023-10-20T00:21:12.604Z,976.7
2023-10-20T00:22:13.775Z,976.7
2023-10-20T00:23:14.960Z,976.8
2023-10-20T00:24:16.189Z,976.8
2023-10-20T00:25:17.350Z,976.9
2023-10-20T00:26:18.561Z,976.9
2023-10-20T00:27:19.760Z,976.9
2023-10-20T00:28:20.918Z,976.9
2023-10-20T00:29:22.107Z,976.9
2023-10-20T00:30:23.349Z,976.9
2023-10-20T00:31:24.538Z,976.9
2023-10-20T00:32:25.974Z,976.9
2023-10-20T00:33:27.322Z,976.9
2023-10-20T00:34:28.476Z,976.9
2023-10-20T00:35:29.717Z,976.9
2023-10-20T00:36:30.874Z,976.9
2023-10-20T00:37:32.028Z,976.9
2023-10-20T00:38:33.334Z,976.8
2023-10-20T00:39:34.511Z,976.8
2023-10-20T00:40:35.686Z,976.8
2023-10-20T00:41:36.997Z,976.7
2023-10-20T00:42:38.229Z,976.7
2023-10-20T00:43:39.748Z,976.6
2023-10-20T00:44:40.928Z,976.6
2023-10-20T00:45:42.183Z,976.6
2023-10-20T00:46:43.349Z,976.6
2023-10-20T00:47:44.720Z,976.6
2023-10-20T00:48:46.136Z,976.7
2023-10-20T00:49:47.437Z,976.6
2023-10-20T00:50:48.607Z,976.6
2023-10-20T00:51:49.764Z,976.6
2023-10-20T00:52:51.026Z,976.5
2023-10-20T00:53:52.224Z,976.5
2023-10-20T00:54:53.382Z,976.5
2023-10-20T00:55:54.553Z,976.5
2023-10-20T00:56:55.727Z,976.5
2023-10-20T00:57:56.900Z,976.5
2023-10-20T00:58:58.083Z,976.5
2023-10-20T00:59:59.243Z,976.5
2023-10-20T01:01:00.485Z,976.4
2023-10-20T01:02:01.945Z,976.4
2023-10-20T01:03:03.480Z,976.4
2023-10-20T01:04:04.993Z,976.4
2023-10-20T01:05:06.293Z,976.4
2023-10-20T01:06:07.488Z,976.5
2023-10-20T01:07:08.660Z,976.4
2023-10-20T01:08:09.855Z,976.4
2023-10-20T01:09:11.368Z,976.4
2023-10-20T01:10:12.894Z,976.3
2023-10-20T01:11:14.084Z,976.3
2023-10-20T01:12:15.257Z,976.3
2023-10-20T01:13:16.424Z,976.2
2023-10-20T01:14:17.665Z,976.1
2023-10-20T01:15:18.873Z,976.1
2023-10-20T01:16:20.093Z,976.1
2023-10-20T01:17:21.335Z,976.1
2023-10-20T01:18:22.741Z,976.1
2023-10-20T01:19:23.999Z,976
2023-10-20T01:20:25.168Z,976
2023-10-20T01:21:26.401Z,976
2023-10-20T01:22:27.561Z,976.1
2023-10-20T01:23:28.828Z,976.1
2023-10-20T01:24:29.999Z,976.2
2023-10-20T01:25:31.202Z,976.2
2023-10-20T01:26:32.416Z,976.2
2023-10-20T01:27:33.620Z,976.2
2023-10-20T01:28:34.785Z,976.2
2023-10-20T01:29:36.038Z,976.2
2023-10-20T01:30:37.225Z,976.2
2023-10-20T01:31:38.393Z,976.2
2023-10-20T01:32:39.723Z,976.2
2023-10-20T01:33:41.066Z,976.2
2023-10-20T01:34:42.233Z,976.3
2023-10-20T01:35:43.459Z,976.2
2023-10-20T01:36:44.641Z,976.2
2023-10-20T01:37:45.810Z,976.2
2023-10-20T01:38:46.965Z,976.2
2023-10-20T01:39:48.132Z,976.2
2023-10-20T01:40:49.307Z,976.1
2023-10-20T01:41:50.505Z,976.2
2023-10-20T01:42:51.720Z,976.2
2023-10-20T01:43:52.888Z,976.1
2023-10-20T01:44:54.057Z,976.1
2023-10-20T01:45:55.218Z,976.1
2023-10-20T01:46:56.505Z,976
2023-10-20T01:47:57.836Z,976.1
2023-10-20T01:48:59.146Z,976.1
2023-10-20T01:50:00.357Z,976.1
2023-10-20T01:51:01.516Z,976.1
2023-10-20T01:52:02.675Z,976.1
2023-10-20T01:53:03.907Z,976.1
2023-10-20T01:54:05.189Z,976.2
2023-10-20T01:55:06.441Z,976.2
2023-10-20T01:56:07.793Z,976.2
2023-10-20T01:57:09.271Z,976.2
2023-10-20T01:58:10.445Z,976.2
2023-10-20T01:59:11.690Z,976.1
2023-10-20T02:00:12.907Z,976.1
2023-10-20T02:01:14.155Z,976.1
2023-10-20T02:02:15.547Z,976.1
2023-10-20T02:03:17.026Z,976.2
2023-10-20T02:04:18.477Z,976.1
2023-10-20T02:05:19.667Z,976.1
2023-10-20T02:06:20.821Z,976.1
2023-10-20T02:07:21.991Z,976.1
2023-10-20T02:08:23.313Z,976.1
2023-10-20T02:09:24.534Z,976.1
2023-10-20T02:10:25.770Z,976.1
2023-10-20T02:11:26.996Z,976.1
2023-10-20T02:12:28.212Z,976.1
2023-10-20T02:13:29.378Z,976.1
2023-10-20T02:14:30.647Z,976.1
2023-10-20T02:15:31.998Z,976.1
2023-10-20T02:16:33.242Z,976
2023-10-20T02:17:34.642Z,976
2023-10-20T02:18:35.887Z,975.9
2023-10-20T02:19:37.068Z,975.9
2023-10-20T02:20:38.283Z,975.9
2023-10-20T02:21:39.484Z,975.9
2023-10-20T02:22:40.648Z,975.9
2023-10-20T02:23:41.864Z,975.9
2023-10-20T02:24:43.078Z,975.8
2023-10-20T02:25:44.254Z,975.8
2023-10-20T02:26:45.409Z,975.8
2023-10-20T02:27:46.580Z,975.7
2023-10-20T02:28:47.738Z,975.7
2023-10-20T02:29:48.901Z,975.6
2023-10-20T02:30:50.186Z,975.6
2023-10-20T02:31:51.346Z,975.6
2023-10-20T02:32:52.635Z,975.6
2023-10-20T02:33:53.901Z,975.6
2023-10-20T02:34:55.070Z,975.6
2023-10-20T02:35:56.245Z,975.6
2023-10-20T02:36:57.414Z,975.6
2023-10-20T02:37:58.585Z,975.6
2023-10-20T02:38:59.743Z,975.6
2023-10-20T02:40:00.947Z,975.6
2023-10-20T02:41:02.181Z,975.6
2023-10-20T02:42:03.335Z,975.6
2023-10-20T02:43:04.503Z,975.6
2023-10-20T02:44:05.686Z,975.7
2023-10-20T02:45:06.850Z,975.6
2023-10-20T02:46:08.069Z,975.6
2023-10-20T02:47:09.386Z,975.6
2023-10-20T02:48:10.634Z,975.6
2023-10-20T02:49:12.121Z,975.5
2023-10-20T02:50:13.321Z,975.5
2023-10-20T02:51:14.557Z,975.5
2023-10-20T02:52:15.730Z,975.5
2023-10-20T02:53:17.035Z,975.5
2023-10-20T02:54:18.235Z,975.5
2023-10-20T02:55:19.408Z,975.5
2023-10-20T02:56:20.791Z,975.5
2023-10-20T02:57:22.103Z,975.5
2023-10-20T02:58:23.259Z,975.6
2023-10-20T02:59:24.550Z,975.6
2023-10-20T03:00:25.814Z,975.6
2023-10-20T03:01:26.981Z,975.6
2023-10-20T03:02:28.651Z,975.5
2023-10-20T03:03:30.445Z,975.5
2023-10-20T03:04:32.603Z,975.5
2023-10-20T03:05:34.765Z,975.5
2023-10-20T03:06:35.922Z,975.4
2023-10-20T03:07:37.090Z,975.4
2023-10-20T03:08:38.423Z,975.4
2023-10-20T03:09:39.598Z,975.4
2023-10-20T03:10:40.781Z,975.3
2023-10-20T03:11:42.045Z,975.2
2023-10-20T03:12:43.227Z,975.2
2023-10-20T03:13:44.395Z,975.2
2023-10-20T03:14:45.629Z,975.3
2023-10-20T03:15:46.776Z,975.3
2023-10-20T03:16:48.046Z,975.3
2023-10-20T03:17:49.487Z,975.2
2023-10-20T03:18:50.750Z,975.2
2023-10-20T03:19:51.924Z,975.1
2023-10-20T03:20:53.113Z,975.1
2023-10-20T03:21:54.246Z,975.1
2023-10-20T03:22:55.416Z,975.1
2023-10-20T03:23:56.578Z,975.1
2023-10-20T03:24:57.748Z,975.1
2023-10-20T03:25:58.959Z,975.1
2023-10-20T03:27:00.282Z,975.1
2023-10-20T03:28:01.549Z,975.2
2023-10-20T03:29:02.752Z,975.1
2023-10-20T03:30:03.951Z,975.1
2023-10-20T03:31:05.123Z,975.1
2023-10-20T03:32:06.321Z,975
2023-10-20T03:33:07.552Z,975
2023-10-20T03:35:19.625Z,975.1
2023-10-20T03:36:20.831Z,975.1
2023-10-20T03:37:21.975Z,975.1
2023-10-20T03:38:23.199Z,975.1
2023-10-20T03:39:24.415Z,975
2023-10-20T03:40:25.570Z,975
2023-10-20T03:41:27.114Z,975
2023-10-20T03:42:28.472Z,974.9
2023-10-20T03:43:29.634Z,974.9
2023-10-20T03:44:30.916Z,974.9
2023-10-20T03:45:32.414Z,974.9
2023-10-20T03:46:33.626Z,974.9
2023-10-20T03:47:34.978Z,974.9
2023-10-20T03:48:36.410Z,974.9
2023-10-20T03:49:37.648Z,974.9
2023-10-20T03:50:38.853Z,974.9
2023-10-20T03:51:40.137Z,974.9
2023-10-20T03:52:41.275Z,974.9
2023-10-20T03:53:42.625Z,974.9
2023-10-20T03:54:43.910Z,974.8
2023-10-20T03:55:45.073Z,974.8
2023-10-20T03:56:46.292Z,974.8
2023-10-20T03:57:47.505Z,974.8
2023-10-20T03:58:48.800Z,974.8
2023-10-20T03:59:49.962Z,974.8
2023-10-20T04:00:51.139Z,974.7
2023-10-20T04:01:52.316Z,974.7
2023-10-20T04:02:53.944Z,974.7
2023-10-20T04:03:55.191Z,974.6
2023-10-20T04:04:56.356Z,974.6
2023-10-20T04:05:57.518Z,974.6
2023-10-20T04:06:58.719Z,974.6
2023-10-20T04:07:59.859Z,974.6
2023-10-20T04:09:01.041Z,974.6
2023-10-20T04:10:02.220Z,974.6
2023-10-20T04:11:03.416Z,974.6
2023-10-20T04:12:04.557Z,974.6
2023-10-20T04:13:08.336Z,974.6
2023-10-20T04:14:09.480Z,974.6
2023-10-20T04:15:10.674Z,974.7
2023-10-20T04:16:11.855Z,974.7
2023-10-20T04:17:13.077Z,974.7
2023-10-20T04:18:14.273Z,974.7
2023-10-20T04:19:15.449Z,974.7
2023-10-20T04:20:16.714Z,974.7
2023-10-20T04:21:17.957Z,974.7
2023-10-20T04:22:19.209Z,974.7
2023-10-20T04:23:20.398Z,974.7
2023-10-20T04:24:21.579Z,974.6
2023-10-20T04:25:22.756Z,974.6
2023-10-20T04:26:23.978Z,974.6
2023-10-20T04:27:25.198Z,974.6
2023-10-20T04:28:26.366Z,974.5
2023-10-20T04:29:27.598Z,974.5
2023-10-20T04:30:28.735Z,974.5
2023-10-20T04:31:29.962Z,974.5
2023-10-20T04:32:31.338Z,974.4
2023-10-20T04:33:32.871Z,974.5
2023-10-20T04:34:34.438Z,974.4
2023-10-20T04:35:35.631Z,974.5
2023-10-20T04:36:36.851Z,974.5
2023-10-20T04:37:38.024Z,974.5
2023-10-20T04:38:39.260Z,974.5
2023-10-20T04:39:40.425Z,974.5
2023-10-20T04:40:41.662Z,974.5
2023-10-20T04:41:42.962Z,974.5
2023-10-20T04:42:44.189Z,974.5
2023-10-20T04:43:45.378Z,974.5
2023-10-20T04:44:46.562Z,974.5
2023-10-20T04:45:47.766Z,974.4
2023-10-20T04:46:48.949Z,974.4
2023-10-20T04:47:50.334Z,974.4
2023-10-20T04:48:51.604Z,974.4
2023-10-20T04:49:52.771Z,974.3
2023-10-20T04:50:53.945Z,974.3
2023-10-20T04:51:55.097Z,974.3
2023-10-20T04:52:56.287Z,974.2
2023-10-20T04:53:57.424Z,974.2
2023-10-20T04:54:58.595Z,974.2
2023-10-20T04:55:59.758Z,974.2
2023-10-20T04:57:00.932Z,974.2
2023-10-20T04:58:02.099Z,974.2
2023-10-20T04:59:03.256Z,974.2
2023-10-20T05:00:04.464Z,974.2
2023-10-20T05:01:05.662Z,974.1
2023-10-20T05:02:06.856Z,974.1
2023-10-20T05:03:08.125Z,974.1
2023-10-20T05:04:09.444Z,974.1
2023-10-20T05:05:10.793Z,974
2023-10-20T05:06:11.944Z,974
2023-10-20T05:07:13.157Z,974
2023-10-20T05:08:14.415Z,973.9
2023-10-20T05:09:15.608Z,973.9
2023-10-20T05:10:16.746Z,973.9
2023-10-20T05:11:18.005Z,973.8
2023-10-20T05:12:19.236Z,973.8
2023-10-20T05:13:20.392Z,973.8
2023-10-20T05:14:21.629Z,973.8
2023-10-20T05:15:22.867Z,973.8
2023-10-20T05:16:24.191Z,973.8
2023-10-20T05:17:25.578Z,973.9
2023-10-20T05:18:26.935Z,973.9
2023-10-20T05:19:28.159Z,973.9
2023-10-20T05:20:29.453Z,973.9
2023-10-20T05:21:30.622Z,973.9
2023-10-20T05:22:31.787Z,973.9
2023-10-20T05:23:33.045Z,973.9
2023-10-20T05:24:34.769Z,973.9
2023-10-20T05:25:36.377Z,973.9
2023-10-20T05:26:37.651Z,973.9
2023-10-20T05:27:38.846Z,974
2023-10-20T05:28:40.116Z,974
2023-10-20T05:29:41.600Z,974
2023-10-20T05:30:42.787Z,974
2023-10-20T05:31:44.040Z,974
2023-10-20T05:32:45.268Z,974
2023-10-20T05:33:46.525Z,974
2023-10-20T05:34:47.692Z,973.9
2023-10-20T05:35:48.886Z,973.9
2023-10-20T05:36:50.090Z,973.9
2023-10-20T05:37:51.258Z,973.9
2023-10-20T05:38:52.452Z,973.9
2023-10-20T05:39:53.594Z,973.9
2023-10-20T05:40:54.804Z,974
2023-10-20T05:41:55.952Z,974
2023-10-20T05:42:57.114Z,973.9
2023-10-20T05:43:58.311Z,973.9
2023-10-20T05:45:02.914Z,973.9
2023-10-20T05:46:04.375Z,973.9
2023-10-20T05:47:05.764Z,973.8
2023-10-20T05:48:07.118Z,973.8
2023-10-20T05:49:08.490Z,973.8
2023-10-20T05:50:09.654Z,973.8
2023-10-20T05:51:10.819Z,973.8
2023-10-20T05:52:12.010Z,973.7
2023-10-20T05:53:13.233Z,973.7
2023-10-20T05:54:14.475Z,973.7
2023-10-20T05:55:15.598Z,973.6
2023-10-20T05:56:16.849Z,973.6
2023-10-20T05:57:18.010Z,973.6
2023-10-20T05:58:19.170Z,973.6
2023-10-20T05:59:20.350Z,973.5
2023-10-20T06:00:21.513Z,973.5
2023-10-20T06:01:22.683Z,973.5
2023-10-20T06:02:23.943Z,973.5
2023-10-20T06:03:25.258Z,973.5
2023-10-20T06:04:26.609Z,973.5
2023-10-20T06:05:27.963Z,973.5
2023-10-20T06:06:29.123Z,973.4
2023-10-20T06:07:30.294Z,973.4
2023-10-20T06:08:31.574Z,973.4
2023-10-20T06:09:33.030Z,973.3
2023-10-20T06:10:34.188Z,973.3
2023-10-20T06:11:35.395Z,973.3
2023-10-20T06:12:36.574Z,973.4
2023-10-20T06:13:37.781Z,973.4
2023-10-20T06:14:39.010Z,973.3
2023-10-20T06:15:40.203Z,973.4
2023-10-20T06:16:41.369Z,973.4
2023-10-20T06:17:42.611Z,973.4
2023-10-20T06:18:44.228Z,973.4
2023-10-20T06:19:45.400Z,973.4
2023-10-20T06:20:46.586Z,973.4
2023-10-20T06:21:47.830Z,973.4
2023-10-20T06:22:48.994Z,973.4
2023-10-20T06:23:50.209Z,973.3
2023-10-20T06:24:51.489Z,973.4
2023-10-20T06:25:52.613Z,973.3
2023-10-20T06:26:53.867Z,973.3
2023-10-20T06:27:55.133Z,973.4
2023-10-20T06:28:56.301Z,973.3
2023-10-20T06:29:57.552Z,973.3
2023-10-20T06:30:58.684Z,973.3
2023-10-20T06:32:00.006Z,973.3
2023-10-20T06:33:01.381Z,973.3
2023-10-20T06:34:02.694Z,973.2
2023-10-20T06:35:03.852Z,973.2
2023-10-20T06:36:05.026Z,973.2
2023-10-20T06:37:06.184Z,973.1
2023-10-20T06:38:07.385Z,973.1
2023-10-20T06:39:08.559Z,973.1
2023-10-20T06:40:09.757Z,973.1
2023-10-20T06:41:10.910Z,973.1
2023-10-20T06:42:12.063Z,973.1
2023-10-20T06:43:13.242Z,973.1
2023-10-20T06:44:14.523Z,973.1
2023-10-20T06:45:15.683Z,973.1
2023-10-20T06:46:16.919Z,973.1
2023-10-20T06:47:18.189Z,973.1
2023-10-20T06:48:19.409Z,973.1
2023-10-20T06:49:21.204Z,973.1
2023-10-20T06:50:22.430Z,973.1
2023-10-20T06:51:23.576Z,973
2023-10-20T06:52:24.744Z,973
2023-10-20T06:53:25.978Z,973
2023-10-20T06:54:27.200Z,972.9
2023-10-20T06:56:04.682Z,972.9
2023-10-20T06:57:16.042Z,972.9
2023-10-20T06:58:17.187Z,972.9
2023-10-20T06:59:18.471Z,972.9
2023-10-20T07:00:19.682Z,972.9
2023-10-20T07:01:20.937Z,972.8
2023-10-20T07:02:22.219Z,972.8
2023-10-20T07:03:23.621Z,972.8
2023-10-20T07:04:24.859Z,972.8
2023-10-20T07:05:26.166Z,972.7
2023-10-20T07:06:27.326Z,972.7
2023-10-20T07:07:28.491Z,972.7
2023-10-20T07:08:32.031Z,972.7
2023-10-20T07:09:33.195Z,972.6
2023-10-20T07:10:34.365Z,972.6
2023-10-20T07:11:35.582Z,972.5
2023-10-20T07:12:36.736Z,972.5
2023-10-20T07:13:37.892Z,972.5
2023-10-20T07:14:39.153Z,972.5
2023-10-20T07:15:40.490Z,972.5
2023-10-20T07:16:41.648Z,972.5
2023-10-20T07:17:42.951Z,972.6
2023-10-20T07:18:44.323Z,972.6
2023-10-20T07:19:45.525Z,972.6
2023-10-20T07:20:47.233Z,972.6
2023-10-20T07:21:48.464Z,972.6
2023-10-20T07:22:49.628Z,972.6
2023-10-20T07:23:50.882Z,972.6
2023-10-20T07:24:52.069Z,972.7
2023-10-20T07:25:53.231Z,972.7
2023-10-20T07:26:54.563Z,972.7
2023-10-20T07:27:58.226Z,972.7
2023-10-20T07:28:59.760Z,972.7
2023-10-20T07:30:00.957Z,972.7
2023-10-20T07:31:02.173Z,972.7
2023-10-20T07:32:03.339Z,972.7
2023-10-20T07:33:04.627Z,972.7
2023-10-20T07:34:05.971Z,972.6
2023-10-20T07:35:07.311Z,972.7
2023-10-20T07:36:08.479Z,972.7
2023-10-20T07:37:09.642Z,972.7
2023-10-20T07:38:11.109Z,972.7
2023-10-20T07:39:12.331Z,972.7
2023-10-20T07:40:13.496Z,972.6
2023-10-20T07:41:15.157Z,972.6
2023-10-20T07:42:16.436Z,972.5
2023-10-20T07:43:17.568Z,972.5
2023-10-20T07:44:18.736Z,972.5
2023-10-20T07:45:19.918Z,972.4
2023-10-20T07:46:21.102Z,972.4
2023-10-20T07:47:22.407Z,972.3
2023-10-20T07:48:23.697Z,972.3
2023-10-20T07:49:24.915Z,972.3
2023-10-20T07:50:26.343Z,972.3
2023-10-20T07:51:27.960Z,972.3
2023-10-20T07:52:29.115Z,972.3
2023-10-20T07:53:30.315Z,972.3
2023-10-20T07:54:31.643Z,972.2
2023-10-20T07:55:32.801Z,972.2
2023-10-20T07:56:34.042Z,972.2
2023-10-20T07:57:35.220Z,972.2
2023-10-20T07:58:36.358Z,972.2
2023-10-20T07:59:37.773Z,972.2
2023-10-20T08:00:38.936Z,972.2
2023-10-20T08:01:40.174Z,972.2
2023-10-20T08:02:41.566Z,972.2
2023-10-20T08:03:43.155Z,972.2
2023-10-20T08:04:45.169Z,972.2
2023-10-20T08:05:47.333Z,972.2
2023-10-20T08:06:49.993Z,972.2
2023-10-20T08:07:51.662Z,972.2
2023-10-20T08:08:52.881Z,972.2
2023-10-20T08:09:54.134Z,972.1
2023-10-20T08:10:55.550Z,972.1
2023-10-20T08:11:56.745Z,972.1
2023-10-20T08:12:57.973Z,972.1
2023-10-20T08:13:59.204Z,972.1
2023-10-20T08:15:00.368Z,972.1
2023-10-20T08:16:01.737Z,972.1
2023-10-20T08:17:03.036Z,972.2
2023-10-20T08:18:04.340Z,972.2
2023-10-20T08:19:05.583Z,972.1
2023-10-20T08:20:06.725Z,972.1
2023-10-20T08:21:07.898Z,972.1
2023-10-20T08:22:09.055Z,972.1
2023-10-20T08:23:10.581Z,972.1
2023-10-20T08:24:11.897Z,972
2023-10-20T08:25:13.081Z,972
2023-10-20T08:26:14.394Z,972
2023-10-20T08:27:15.616Z,972
2023-10-20T08:28:16.799Z,971.9
2023-10-20T08:29:18.015Z,971.9
2023-10-20T08:30:19.315Z,971.9
2023-10-20T08:31:20.505Z,971.8
2023-10-20T08:32:21.742Z,971.8
2023-10-20T08:33:22.942Z,971.8
2023-10-20T08:34:24.108Z,971.7
2023-10-20T08:35:25.327Z,971.7
2023-10-20T08:36:26.551Z,971.7
2023-10-20T08:37:27.717Z,971.7
2023-10-20T08:38:28.954Z,971.7
2023-10-20T08:39:30.120Z,971.8
2023-10-20T08:40:37.024Z,971.8
2023-10-20T08:42:11.678Z,971.7
2023-10-20T08:43:13.474Z,971.7
2023-10-20T08:44:14.761Z,971.7
2023-10-20T08:45:15.913Z,971.7
2023-10-20T08:46:17.120Z,971.6
2023-10-20T08:47:18.512Z,971.7
2023-10-20T08:48:19.830Z,971.7
2023-10-20T08:49:21.100Z,971.6
2023-10-20T08:50:22.306Z,971.6
2023-10-20T08:51:23.460Z,971.6
2023-10-20T08:52:24.626Z,971.6
2023-10-20T08:53:25.828Z,971.6
2023-10-20T08:54:26.992Z,971.6
2023-10-20T08:55:28.153Z,971.6
2023-10-20T08:56:29.409Z,971.7
2023-10-20T08:57:30.550Z,971.7
2023-10-20T08:58:31.877Z,971.7
2023-10-20T08:59:33.909Z,971.7
2023-10-20T09:00:43.671Z,971.7
2023-10-20T09:02:00.387Z,971.7
2023-10-20T09:03:01.792Z,971.7
2023-10-20T09:04:03.257Z,971.7
2023-10-20T09:05:04.654Z,971.8
2023-10-20T09:06:05.817Z,971.8
2023-10-20T09:07:06.981Z,971.8
2023-10-20T09:08:08.151Z,971.8
2023-10-20T09:09:09.332Z,971.8
2023-10-20T09:10:10.543Z,971.8
2023-10-20T09:11:11.833Z,971.7
2023-10-20T09:12:13.091Z,971.7
2023-10-20T09:13:14.480Z,971.7
2023-10-20T09:14:15.855Z,971.7
2023-10-20T09:15:17.031Z,971.7
2023-10-20T09:16:18.450Z,971.8
2023-10-20T09:17:19.712Z,971.8
2023-10-20T09:18:21.096Z,971.8
2023-10-20T09:19:22.383Z,971.8
2023-10-20T09:20:23.598Z,971.7
2023-10-20T09:21:24.794Z,971.7
2023-10-20T09:22:25.977Z,971.7
2023-10-20T09:23:27.158Z,971.7
2023-10-20T09:24:28.305Z,971.7
2023-10-20T09:25:29.500Z,971.7
2023-10-20T09:26:33.734Z,971.7
2023-10-20T09:27:35.152Z,971.7
2023-10-20T09:28:38.709Z,971.8
2023-10-20T09:29:39.925Z,971.8
2023-10-20T09:30:41.141Z,971.8
2023-10-20T09:31:42.418Z,971.8
2023-10-20T09:32:43.996Z,971.8
2023-10-20T09:33:45.232Z,971.8
2023-10-20T09:34:46.432Z,971.8
2023-10-20T09:35:47.658Z,971.7
2023-10-20T09:36:48.844Z,971.7
2023-10-20T09:37:50.072Z,971.7
2023-10-20T09:38:51.366Z,971.7
2023-10-20T09:39:52.550Z,971.7
2023-10-20T09:40:53.716Z,971.7
2023-10-20T09:41:55.229Z,971.7
2023-10-20T09:42:59.200Z,971.7
2023-10-20T09:44:16.104Z,971.6
2023-10-20T09:45:17.292Z,971.7
2023-10-20T09:46:18.512Z,971.7
2023-10-20T09:47:21.872Z,971.7
2023-10-20T09:48:23.136Z,971.7
2023-10-20T09:49:24.478Z,971.7
2023-10-20T09:50:25.787Z,971.8
2023-10-20T09:51:26.961Z,971.8
2023-10-20T09:52:30.636Z,971.8
2023-10-20T09:53:31.861Z,971.9
2023-10-20T09:54:33.091Z,971.9
2023-10-20T09:55:34.272Z,971.9
2023-10-20T09:56:35.525Z,971.9
2023-10-20T09:57:36.685Z,971.9
2023-10-20T09:58:37.879Z,971.9
2023-10-20T09:59:39.092Z,971.9
2023-10-20T10:00:40.390Z,971.9
2023-10-20T10:01:41.591Z,972
2023-10-20T10:02:43.017Z,972
2023-10-20T10:03:44.679Z,972
2023-10-20T10:04:47.685Z,972.1
2023-10-20T10:05:49.960Z,972.1
2023-10-20T10:06:51.181Z,972.1
2023-10-20T10:07:52.345Z,972.1
2023-10-20T10:08:53.543Z,972.1
2023-10-20T10:09:54.743Z,972.1
2023-10-20T10:10:55.910Z,972.1
2023-10-20T10:11:57.203Z,972.1
2023-10-20T10:12:58.362Z,972.1
2023-10-20T10:13:59.548Z,972.2
2023-10-20T10:15:00.910Z,972.1
2023-10-20T10:16:02.099Z,972.1
2023-10-20T10:17:03.323Z,972
2023-10-20T10:18:04.583Z,972
2023-10-20T10:19:05.869Z,972
2023-10-20T10:20:07.040Z,972
2023-10-20T10:21:08.214Z,972
2023-10-20T10:22:09.378Z,972
2023-10-20T10:23:10.550Z,972
2023-10-20T10:24:11.704Z,972
2023-10-20T10:25:12.870Z,972.1
2023-10-20T10:26:14.237Z,972.1
2023-10-20T10:27:15.780Z,972.1
2023-10-20T10:28:17.098Z,972.1
2023-10-20T10:29:18.337Z,972.1
2023-10-20T10:30:19.520Z,972.1
2023-10-20T10:31:20.808Z,972.1
2023-10-20T10:32:22.119Z,972.1
2023-10-20T10:33:24.238Z,972
2023-10-20T10:34:25.834Z,972
2023-10-20T10:35:27.196Z,972
2023-10-20T10:36:28.485Z,972
2023-10-20T10:37:31.244Z,972
2023-10-20T10:38:32.979Z,972
2023-10-20T10:39:34.737Z,972
2023-10-20T10:40:36.391Z,972
2023-10-20T10:41:37.605Z,972
2023-10-20T10:42:38.794Z,972
2023-10-20T10:43:39.968Z,972
2023-10-20T10:44:41.739Z,972.1
2023-10-20T10:45:43.005Z,972.1
2023-10-20T10:46:44.179Z,972.1
2023-10-20T10:47:45.666Z,972.1
2023-10-20T10:48:47.009Z,972.1
2023-10-20T10:49:48.166Z,972.1
2023-10-20T10:50:49.920Z,972
2023-10-20T10:51:51.547Z,972
2023-10-20T10:52:53.754Z,972
2023-10-20T10:53:54.964Z,971.9
2023-10-20T10:54:56.123Z,971.9
2023-10-20T10:55:57.291Z,971.9
2023-10-20T10:56:58.541Z,972
2023-10-20T10:57:59.692Z,972
2023-10-20T10:59:00.859Z,972
2023-10-20T11:00:02.827Z,972
2023-10-20T11:01:04.074Z,972
2023-10-20T11:02:05.249Z,972
2023-10-20T11:03:07.669Z,972
2023-10-20T11:04:09.177Z,972
2023-10-20T11:05:10.670Z,971.9
2023-10-20T11:06:11.789Z,971.9
2023-10-20T11:07:12.970Z,971.9
2023-10-20T11:08:16.393Z,971.8
2023-10-20T11:09:19.963Z,971.7
2023-10-20T11:10:21.125Z,971.7
2023-10-20T11:11:22.366Z,971.6
2023-10-20T11:12:23.636Z,971.5
2023-10-20T11:13:24.807Z,971.4
2023-10-20T11:14:26.076Z,971.4
2023-10-20T11:15:27.431Z,971.3
2023-10-20T11:16:28.749Z,971.4
2023-10-20T11:17:30.217Z,971.4
2023-10-20T11:18:31.670Z,971.4
2023-10-20T11:19:32.966Z,971.5
2023-10-20T11:20:34.262Z,971.5
2023-10-20T11:21:35.447Z,971.5
2023-10-20T11:22:36.686Z,971.4
2023-10-20T11:23:37.857Z,971.4
2023-10-20T11:24:39.488Z,971.4
2023-10-20T11:25:40.678Z,971.4
2023-10-20T11:26:41.875Z,971.4
2023-10-20T11:27:43.032Z,971.4
2023-10-20T11:28:44.199Z,971.3
2023-10-20T11:29:59.586Z,971.3
2023-10-20T11:31:01.087Z,971.2
2023-10-20T11:32:02.290Z,971.2
2023-10-20T11:33:03.634Z,971.1
2023-10-20T11:34:04.896Z,971.1
2023-10-20T11:35:06.076Z,971
2023-10-20T11:36:07.252Z,971.1
2023-10-20T11:37:08.405Z,971.1
2023-10-20T11:38:09.592Z,971.2
2023-10-20T11:39:14.323Z,971.2
2023-10-20T11:40:15.521Z,971.3
2023-10-20T11:41:19.091Z,971.2
2023-10-20T11:42:20.251Z,971.2
2023-10-20T11:43:21.450Z,971.2
2023-10-20T11:44:22.668Z,971.2
2023-10-20T11:45:23.921Z,971.2
2023-10-20T11:46:25.137Z,971.1
2023-10-20T11:47:26.468Z,971
2023-10-20T11:48:27.923Z,970.9
2023-10-20T11:49:29.229Z,970.9
2023-10-20T11:50:30.478Z,970.8
2023-10-20T11:51:31.643Z,970.8
2023-10-20T11:52:32.812Z,970.8
2023-10-20T11:53:33.998Z,970.8
2023-10-20T11:54:35.588Z,970.8
2023-10-20T11:55:37.089Z,970.8
2023-10-20T11:56:38.296Z,970.8
2023-10-20T11:57:39.468Z,970.8
2023-10-20T11:58:40.637Z,970.8
2023-10-20T11:59:41.882Z,970.8
2023-10-20T12:00:43.215Z,970.8
2023-10-20T12:01:44.409Z,970.8
2023-10-20T12:02:45.922Z,970.7
2023-10-20T12:03:47.482Z,970.6
2023-10-20T12:04:49.007Z,970.6
2023-10-20T12:05:50.237Z,970.6
2023-10-20T12:06:51.402Z,970.6
2023-10-20T12:07:52.608Z,970.6
2023-10-20T12:08:53.761Z,970.6
2023-10-20T12:09:54.946Z,970.6
2023-10-20T12:10:56.119Z,970.6
2023-10-20T12:11:57.335Z,970.6
2023-10-20T12:12:58.464Z,970.5
2023-10-20T12:13:59.639Z,970.5
2023-10-20T12:15:00.926Z,970.4
2023-10-20T12:16:02.338Z,970.4
2023-10-20T12:17:03.535Z,970.3
2023-10-20T12:18:04.862Z,970.2
2023-10-20T12:19:06.171Z,970.2
2023-10-20T12:20:07.425Z,970.1
2023-10-20T12:21:08.562Z,970.2
2023-10-20T12:22:09.728Z,970.1
2023-10-20T12:23:10.930Z,970.1
2023-10-20T12:24:12.457Z,970.1
2023-10-20T12:25:13.629Z,970
2023-10-20T12:26:14.796Z,970
2023-10-20T12:27:15.960Z,970
2023-10-20T12:28:20.159Z,969.9
2023-10-20T12:29:21.443Z,969.9
2023-10-20T12:30:22.596Z,969.9
2023-10-20T12:31:23.977Z,969.9
2023-10-20T12:32:25.336Z,969.9
2023-10-20T12:33:26.703Z,969.9
2023-10-20T12:34:28.045Z,970
2023-10-20T12:35:29.337Z,970
2023-10-20T12:36:30.478Z,969.9
2023-10-20T12:37:31.647Z,970
2023-10-20T12:38:32.833Z,969.9
2023-10-20T12:39:34.005Z,969.9
2023-10-20T12:40:35.210Z,969.9
2023-10-20T12:41:36.410Z,969.8
2023-10-20T12:42:37.659Z,969.8
2023-10-20T12:43:38.846Z,969.8
2023-10-20T12:44:40.179Z,969.8
2023-10-20T12:45:41.369Z,969.9
2023-10-20T12:46:42.575Z,969.9
2023-10-20T12:47:43.918Z,969.9
2023-10-20T12:48:45.389Z,969.9
2023-10-20T12:49:46.621Z,969.9
2023-10-20T12:50:47.991Z,969.9
2023-10-20T12:51:49.270Z,969.9
2023-10-20T12:52:50.431Z,969.8
2023-10-20T12:53:51.663Z,969.8
2023-10-20T12:54:52.974Z,969.8
2023-10-20T12:55:54.136Z,969.8
2023-10-20T12:56:55.356Z,969.8
2023-10-20T12:57:56.613Z,969.8
2023-10-20T12:58:57.772Z,969.8
2023-10-20T12:59:59.026Z,969.9
2023-10-20T13:01:00.199Z,969.9
2023-10-20T13:02:01.504Z,969.8
2023-10-20T13:03:03.074Z,969.8
2023-10-20T13:04:04.517Z,969.8
2023-10-20T13:05:05.778Z,969.7
2023-10-20T13:06:06.973Z,969.7
2023-10-20T13:07:08.240Z,969.6
2023-10-20T13:08:09.403Z,969.6
2023-10-20T13:09:10.566Z,969.6
2023-10-20T13:10:11.743Z,969.7
2023-10-20T13:11:12.908Z,969.7
2023-10-20T13:12:14.095Z,969.8
2023-10-20T13:13:17.936Z,969.8
2023-10-20T13:14:19.489Z,969.8
2023-10-20T13:15:20.652Z,969.7
2023-10-20T13:16:21.899Z,969.7
2023-10-20T13:17:25.703Z,969.8
2023-10-20T13:18:27.054Z,969.8